sensor_id;sensor_type;location;lat;lon;timestamp;P1;durP1;ratioP1;P2;durP2;ratioP2
19095;SDS011;9680;52.520;13.332;2022-12-24T00:01:44;11.67;;;5.03;;
19095;SDS011;9680;52.520;13.332;2022-12-24T00:04:14;13.07;;;5.10;;
19095;SDS011;9680;52.520;13.332;2022-12-24T00:06:43;12.57;;;5.10;;
19095;SDS011;9680;52.520;13.332;2022-12-24T00:09:12;13.93;;;5.07;;
19095;SDS011;9680;52.520;13.332;2022-12-24T00:11:45;13.37;;;5.70;;
19095;SDS011;9680;52.520;13.332;2022-12-24T00:14:12;12.93;;;5.50;;
19095;SDS011;9680;52.520;13.332;2022-12-24T00:16:40;15.03;;;5.47;;
19095;SDS011;9680;52.520;13.332;2022-12-24T00:19:07;15.50;;;5.73;;
19095;SDS011;9680;52.520;13.332;2022-12-24T00:21:34;11.97;;;5.37;;
19095;SDS011;9680;52.520;13.332;2022-12-24T00:24:01;11.00;;;5.23;;
19095;SDS011;9680;52.520;13.332;2022-12-24T00:26:29;14.73;;;5.50;;
19095;SDS011;9680;52.520;13.332;2022-12-24T00:28:56;13.07;;;5.20;;
19095;SDS011;9680;52.520;13.332;2022-12-24T00:31:23;12.03;;;5.20;;
19095;SDS011;9680;52.520;13.332;2022-12-24T00:33:52;14.33;;;5.10;;
19095;SDS011;9680;52.520;13.332;2022-12-24T00:36:19;11.57;;;4.97;;
19095;SDS011;9680;52.520;13.332;2022-12-24T00:38:46;13.00;;;5.03;;
19095;SDS011;9680;52.520;13.332;2022-12-24T00:41:14;11.60;;;4.90;;
19095;SDS011;9680;52.520;13.332;2022-12-24T00:43:50;12.93;;;5.47;;
19095;SDS011;9680;52.520;13.332;2022-12-24T00:46:17;11.27;;;5.13;;
19095;SDS011;9680;52.520;13.332;2022-12-24T00:48:44;13.50;;;5.00;;
19095;SDS011;9680;52.520;13.332;2022-12-24T00:51:12;12.37;;;5.07;;
19095;SDS011;9680;52.520;13.332;2022-12-24T00:53:40;10.37;;;4.70;;
19095;SDS011;9680;52.520;13.332;2022-12-24T00:56:07;13.40;;;4.60;;
19095;SDS011;9680;52.520;13.332;2022-12-24T00:58:34;12.77;;;4.40;;
19095;SDS011;9680;52.520;13.332;2022-12-24T01:01:01;11.30;;;5.00;;
19095;SDS011;9680;52.520;13.332;2022-12-24T01:03:27;12.23;;;5.10;;
19095;SDS011;9680;52.520;13.332;2022-12-24T01:06:00;11.67;;;4.90;;
19095;SDS011;9680;52.520;13.332;2022-12-24T01:08:27;15.33;;;4.67;;
19095;SDS011;9680;52.520;13.332;2022-12-24T01:10:54;11.00;;;4.73;;
19095;SDS011;9680;52.520;13.332;2022-12-24T01:13:21;13.50;;;4.80;;
19095;SDS011;9680;52.520;13.332;2022-12-24T01:15:48;13.33;;;4.87;;
19095;SDS011;9680;52.520;13.332;2022-12-24T01:18:15;12.17;;;5.10;;
19095;SDS011;9680;52.520;13.332;2022-12-24T01:20:42;13.63;;;4.70;;
19095;SDS011;9680;52.520;13.332;2022-12-24T01:23:09;13.53;;;4.97;;
19095;SDS011;9680;52.520;13.332;2022-12-24T01:25:37;14.23;;;5.40;;
19095;SDS011;9680;52.520;13.332;2022-12-24T01:28:04;12.87;;;5.10;;
19095;SDS011;9680;52.520;13.332;2022-12-24T01:30:31;13.43;;;4.67;;
19095;SDS011;9680;52.520;13.332;2022-12-24T01:32:58;11.60;;;4.97;;
19095;SDS011;9680;52.520;13.332;2022-12-24T01:35:25;12.70;;;5.43;;
19095;SDS011;9680;52.520;13.332;2022-12-24T01:37:51;12.17;;;5.10;;
19095;SDS011;9680;52.520;13.332;2022-12-24T01:40:18;10.93;;;5.10;;
19095;SDS011;9680;52.520;13.332;2022-12-24T01:43:08;14.13;;;5.40;;
19095;SDS011;9680;52.520;13.332;2022-12-24T01:45:52;13.80;;;5.70;;
19095;SDS011;9680;52.520;13.332;2022-12-24T01:48:22;15.23;;;5.90;;
19095;SDS011;9680;52.520;13.332;2022-12-24T01:51:02;16.07;;;5.57;;
19095;SDS011;9680;52.520;13.332;2022-12-24T01:53:34;13.40;;;5.10;;
19095;SDS011;9680;52.520;13.332;2022-12-24T01:56:04;16.13;;;6.00;;
19095;SDS011;9680;52.520;13.332;2022-12-24T01:58:34;12.23;;;5.30;;
19095;SDS011;9680;52.520;13.332;2022-12-24T02:01:05;15.67;;;5.57;;
19095;SDS011;9680;52.520;13.332;2022-12-24T02:03:32;16.73;;;6.03;;
19095;SDS011;9680;52.520;13.332;2022-12-24T02:05:59;15.77;;;6.10;;
19095;SDS011;9680;52.520;13.332;2022-12-24T02:08:26;15.70;;;6.20;;
19095;SDS011;9680;52.520;13.332;2022-12-24T02:11:08;18.87;;;6.50;;
19095;SDS011;9680;52.520;13.332;2022-12-24T02:13:39;14.67;;;5.90;;
19095;SDS011;9680;52.520;13.332;2022-12-24T02:16:13;15.67;;;6.20;;
19095;SDS011;9680;52.520;13.332;2022-12-24T02:18:52;15.63;;;6.60;;
19095;SDS011;9680;52.520;13.332;2022-12-24T02:21:38;14.60;;;6.13;;
19095;SDS011;9680;52.520;13.332;2022-12-24T02:24:24;14.00;;;6.30;;
19095;SDS011;9680;52.520;13.332;2022-12-24T02:32:55;14.20;;;6.00;;
19095;SDS011;9680;52.520;13.332;2022-12-24T02:35:34;15.33;;;5.93;;
19095;SDS011;9680;52.520;13.332;2022-12-24T02:38:10;15.00;;;6.03;;
19095;SDS011;9680;52.520;13.332;2022-12-24T02:40:42;14.20;;;5.67;;
19095;SDS011;9680;52.520;13.332;2022-12-24T02:43:14;14.87;;;6.27;;
19095;SDS011;9680;52.520;13.332;2022-12-24T02:45:47;16.60;;;6.00;;
19095;SDS011;9680;52.520;13.332;2022-12-24T02:48:19;16.77;;;6.27;;
19095;SDS011;9680;52.520;13.332;2022-12-24T02:50:58;16.17;;;6.70;;
19095;SDS011;9680;52.520;13.332;2022-12-24T02:53:28;14.67;;;6.07;;
19095;SDS011;9680;52.520;13.332;2022-12-24T02:56:01;14.53;;;6.43;;
19095;SDS011;9680;52.520;13.332;2022-12-24T02:58:47;19.70;;;6.70;;
19095;SDS011;9680;52.520;13.332;2022-12-24T03:01:30;15.83;;;6.20;;
19095;SDS011;9680;52.520;13.332;2022-12-24T03:04:08;17.47;;;6.77;;
19095;SDS011;9680;52.520;13.332;2022-12-24T03:06:43;16.57;;;6.33;;
19095;SDS011;9680;52.520;13.332;2022-12-24T03:09:18;17.43;;;7.07;;
19095;SDS011;9680;52.520;13.332;2022-12-24T03:11:49;18.40;;;6.27;;
19095;SDS011;9680;52.520;13.332;2022-12-24T03:14:23;15.33;;;6.30;;
19095;SDS011;9680;52.520;13.332;2022-12-24T03:16:53;19.87;;;7.13;;
19095;SDS011;9680;52.520;13.332;2022-12-24T03:19:22;14.37;;;6.00;;
19095;SDS011;9680;52.520;13.332;2022-12-24T03:21:50;17.47;;;6.80;;
19095;SDS011;9680;52.520;13.332;2022-12-24T03:24:20;13.70;;;6.53;;
19095;SDS011;9680;52.520;13.332;2022-12-24T03:26:47;18.47;;;6.50;;
19095;SDS011;9680;52.520;13.332;2022-12-24T03:29:14;16.10;;;6.30;;
19095;SDS011;9680;52.520;13.332;2022-12-24T03:31:43;18.67;;;7.30;;
19095;SDS011;9680;52.520;13.332;2022-12-24T03:34:13;15.70;;;5.90;;
19095;SDS011;9680;52.520;13.332;2022-12-24T03:36:41;17.83;;;6.50;;
19095;SDS011;9680;52.520;13.332;2022-12-24T03:39:09;16.87;;;6.33;;
19095;SDS011;9680;52.520;13.332;2022-12-24T03:41:36;16.57;;;6.53;;
19095;SDS011;9680;52.520;13.332;2022-12-24T03:44:03;16.27;;;6.57;;
19095;SDS011;9680;52.520;13.332;2022-12-24T03:46:30;15.90;;;6.30;;
19095;SDS011;9680;52.520;13.332;2022-12-24T03:48:57;17.40;;;6.90;;
19095;SDS011;9680;52.520;13.332;2022-12-24T03:51:25;14.60;;;6.07;;
19095;SDS011;9680;52.520;13.332;2022-12-24T03:53:52;19.57;;;6.70;;
19095;SDS011;9680;52.520;13.332;2022-12-24T03:56:20;16.73;;;7.30;;
19095;SDS011;9680;52.520;13.332;2022-12-24T03:58:46;18.40;;;6.90;;
19095;SDS011;9680;52.520;13.332;2022-12-24T04:01:13;16.17;;;6.47;;
19095;SDS011;9680;52.520;13.332;2022-12-24T04:03:41;15.97;;;6.70;;
19095;SDS011;9680;52.520;13.332;2022-12-24T04:06:08;14.43;;;6.50;;
19095;SDS011;9680;52.520;13.332;2022-12-24T04:08:37;15.80;;;6.33;;
19095;SDS011;9680;52.520;13.332;2022-12-24T04:11:05;18.83;;;6.67;;
19095;SDS011;9680;52.520;13.332;2022-12-24T04:13:34;13.07;;;5.83;;
19095;SDS011;9680;52.520;13.332;2022-12-24T04:16:02;15.80;;;6.43;;
19095;SDS011;9680;52.520;13.332;2022-12-24T04:18:30;16.07;;;6.50;;
19095;SDS011;9680;52.520;13.332;2022-12-24T04:20:57;20.13;;;6.40;;
19095;SDS011;9680;52.520;13.332;2022-12-24T04:23:24;15.13;;;6.57;;
19095;SDS011;9680;52.520;13.332;2022-12-24T04:25:53;16.27;;;6.43;;
19095;SDS011;9680;52.520;13.332;2022-12-24T04:28:19;17.07;;;6.60;;
19095;SDS011;9680;52.520;13.332;2022-12-24T04:30:46;14.63;;;6.07;;
19095;SDS011;9680;52.520;13.332;2022-12-24T04:33:13;15.53;;;6.10;;
19095;SDS011;9680;52.520;13.332;2022-12-24T04:35:40;14.30;;;6.17;;
19095;SDS011;9680;52.520;13.332;2022-12-24T04:38:07;15.07;;;5.83;;
19095;SDS011;9680;52.520;13.332;2022-12-24T04:40:34;17.00;;;6.87;;
19095;SDS011;9680;52.520;13.332;2022-12-24T04:43:02;14.03;;;5.97;;
19095;SDS011;9680;52.520;13.332;2022-12-24T04:45:30;14.80;;;5.77;;
19095;SDS011;9680;52.520;13.332;2022-12-24T04:47:57;16.17;;;6.03;;
19095;SDS011;9680;52.520;13.332;2022-12-24T04:50:24;12.47;;;5.63;;
19095;SDS011;9680;52.520;13.332;2022-12-24T04:52:50;14.17;;;6.20;;
19095;SDS011;9680;52.520;13.332;2022-12-24T04:55:17;11.93;;;5.70;;
19095;SDS011;9680;52.520;13.332;2022-12-24T04:57:44;13.67;;;5.97;;
19095;SDS011;9680;52.520;13.332;2022-12-24T05:00:13;12.53;;;5.60;;
19095;SDS011;9680;52.520;13.332;2022-12-24T05:02:40;14.43;;;6.23;;
19095;SDS011;9680;52.520;13.332;2022-12-24T05:05:07;12.80;;;5.67;;
19095;SDS011;9680;52.520;13.332;2022-12-24T05:07:34;12.77;;;5.63;;
19095;SDS011;9680;52.520;13.332;2022-12-24T05:10:01;11.90;;;5.57;;
19095;SDS011;9680;52.520;13.332;2022-12-24T05:12:27;14.10;;;6.13;;
19095;SDS011;9680;52.520;13.332;2022-12-24T05:14:54;13.30;;;5.53;;
19095;SDS011;9680;52.520;13.332;2022-12-24T05:17:22;13.37;;;5.43;;
19095;SDS011;9680;52.520;13.332;2022-12-24T05:19:49;12.70;;;5.90;;
19095;SDS011;9680;52.520;13.332;2022-12-24T05:22:16;13.70;;;6.00;;
19095;SDS011;9680;52.520;13.332;2022-12-24T05:25:00;13.97;;;5.73;;
19095;SDS011;9680;52.520;13.332;2022-12-24T05:27:44;15.63;;;6.30;;
19095;SDS011;9680;52.520;13.332;2022-12-24T05:30:12;12.97;;;5.37;;
19095;SDS011;9680;52.520;13.332;2022-12-24T05:32:40;12.87;;;5.77;;
19095;SDS011;9680;52.520;13.332;2022-12-24T05:35:07;12.17;;;5.93;;
19095;SDS011;9680;52.520;13.332;2022-12-24T05:37:34;14.13;;;6.40;;
19095;SDS011;9680;52.520;13.332;2022-12-24T05:40:00;12.50;;;5.47;;
19095;SDS011;9680;52.520;13.332;2022-12-24T05:42:27;11.10;;;5.57;;
19095;SDS011;9680;52.520;13.332;2022-12-24T05:44:54;14.97;;;5.73;;
19095;SDS011;9680;52.520;13.332;2022-12-24T05:47:21;15.30;;;6.83;;
19095;SDS011;9680;52.520;13.332;2022-12-24T05:49:49;14.77;;;6.40;;
19095;SDS011;9680;52.520;13.332;2022-12-24T05:52:15;14.90;;;6.47;;
19095;SDS011;9680;52.520;13.332;2022-12-24T05:54:42;14.07;;;5.87;;
19095;SDS011;9680;52.520;13.332;2022-12-24T05:57:09;15.27;;;5.83;;
19095;SDS011;9680;52.520;13.332;2022-12-24T05:59:36;17.20;;;6.87;;
19095;SDS011;9680;52.520;13.332;2022-12-24T06:02:02;16.47;;;7.00;;
19095;SDS011;9680;52.520;13.332;2022-12-24T06:04:29;18.30;;;7.37;;
19095;SDS011;9680;52.520;13.332;2022-12-24T06:06:57;17.20;;;7.17;;
19095;SDS011;9680;52.520;13.332;2022-12-24T06:09:24;17.90;;;6.90;;
19095;SDS011;9680;52.520;13.332;2022-12-24T06:11:51;17.97;;;7.87;;
19095;SDS011;9680;52.520;13.332;2022-12-24T06:14:17;15.67;;;6.47;;
19095;SDS011;9680;52.520;13.332;2022-12-24T06:16:44;17.30;;;7.17;;
19095;SDS011;9680;52.520;13.332;2022-12-24T06:19:11;16.63;;;7.20;;
19095;SDS011;9680;52.520;13.332;2022-12-24T06:21:38;16.83;;;7.03;;
19095;SDS011;9680;52.520;13.332;2022-12-24T06:24:06;19.50;;;7.07;;
19095;SDS011;9680;52.520;13.332;2022-12-24T06:26:33;19.53;;;7.07;;
19095;SDS011;9680;52.520;13.332;2022-12-24T06:29:00;18.03;;;7.17;;
19095;SDS011;9680;52.520;13.332;2022-12-24T06:31:27;28.83;;;9.47;;
19095;SDS011;9680;52.520;13.332;2022-12-24T06:33:53;16.93;;;6.70;;
19095;SDS011;9680;52.520;13.332;2022-12-24T06:36:21;16.57;;;7.40;;
19095;SDS011;9680;52.520;13.332;2022-12-24T06:38:49;18.60;;;7.50;;
19095;SDS011;9680;52.520;13.332;2022-12-24T06:41:18;16.37;;;6.83;;
19095;SDS011;9680;52.520;13.332;2022-12-24T06:43:46;15.70;;;6.77;;
19095;SDS011;9680;52.520;13.332;2022-12-24T06:46:14;14.50;;;6.77;;
19095;SDS011;9680;52.520;13.332;2022-12-24T06:48:41;17.50;;;7.10;;
19095;SDS011;9680;52.520;13.332;2022-12-24T06:51:09;16.10;;;6.87;;
19095;SDS011;9680;52.520;13.332;2022-12-24T06:53:36;17.10;;;6.67;;
19095;SDS011;9680;52.520;13.332;2022-12-24T06:56:03;16.73;;;6.97;;
19095;SDS011;9680;52.520;13.332;2022-12-24T06:58:33;14.77;;;6.23;;
19095;SDS011;9680;52.520;13.332;2022-12-24T07:01:01;14.40;;;6.10;;
19095;SDS011;9680;52.520;13.332;2022-12-24T07:03:28;15.03;;;6.23;;
19095;SDS011;9680;52.520;13.332;2022-12-24T07:05:56;15.47;;;6.57;;
19095;SDS011;9680;52.520;13.332;2022-12-24T07:08:23;14.30;;;6.00;;
19095;SDS011;9680;52.520;13.332;2022-12-24T07:10:50;14.87;;;6.13;;
19095;SDS011;9680;52.520;13.332;2022-12-24T07:13:18;17.87;;;6.67;;
19095;SDS011;9680;52.520;13.332;2022-12-24T07:15:55;13.80;;;5.90;;
19095;SDS011;9680;52.520;13.332;2022-12-24T07:18:22;13.77;;;6.37;;
19095;SDS011;9680;52.520;13.332;2022-12-24T07:20:49;15.27;;;6.07;;
19095;SDS011;9680;52.520;13.332;2022-12-24T07:23:23;16.37;;;6.73;;
19095;SDS011;9680;52.520;13.332;2022-12-24T07:25:50;13.17;;;5.93;;
19095;SDS011;9680;52.520;13.332;2022-12-24T07:28:17;18.00;;;6.87;;
19095;SDS011;9680;52.520;13.332;2022-12-24T07:30:48;17.40;;;6.77;;
19095;SDS011;9680;52.520;13.332;2022-12-24T07:33:16;16.57;;;6.60;;
19095;SDS011;9680;52.520;13.332;2022-12-24T07:35:43;15.73;;;6.03;;
19095;SDS011;9680;52.520;13.332;2022-12-24T07:38:10;15.37;;;6.57;;
19095;SDS011;9680;52.520;13.332;2022-12-24T07:40:54;15.20;;;6.33;;
19095;SDS011;9680;52.520;13.332;2022-12-24T07:43:22;17.70;;;6.63;;
19095;SDS011;9680;52.520;13.332;2022-12-24T07:45:50;17.67;;;6.33;;
19095;SDS011;9680;52.520;13.332;2022-12-24T07:48:21;14.90;;;6.80;;
19095;SDS011;9680;52.520;13.332;2022-12-24T07:50:48;17.37;;;6.97;;
19095;SDS011;9680;52.520;13.332;2022-12-24T07:53:15;16.63;;;7.07;;
19095;SDS011;9680;52.520;13.332;2022-12-24T07:55:42;17.20;;;6.13;;
19095;SDS011;9680;52.520;13.332;2022-12-24T07:58:09;15.87;;;6.50;;
19095;SDS011;9680;52.520;13.332;2022-12-24T08:00:36;15.93;;;7.20;;
19095;SDS011;9680;52.520;13.332;2022-12-24T08:03:04;17.73;;;7.13;;
19095;SDS011;9680;52.520;13.332;2022-12-24T08:05:32;17.03;;;6.87;;
19095;SDS011;9680;52.520;13.332;2022-12-24T08:07:59;17.83;;;6.73;;
19095;SDS011;9680;52.520;13.332;2022-12-24T08:10:26;19.13;;;7.77;;
19095;SDS011;9680;52.520;13.332;2022-12-24T08:12:53;14.83;;;6.40;;
19095;SDS011;9680;52.520;13.332;2022-12-24T08:15:19;16.93;;;7.03;;
19095;SDS011;9680;52.520;13.332;2022-12-24T08:17:46;18.80;;;7.40;;
19095;SDS011;9680;52.520;13.332;2022-12-24T08:20:14;19.77;;;7.27;;
19095;SDS011;9680;52.520;13.332;2022-12-24T08:22:43;16.77;;;6.73;;
19095;SDS011;9680;52.520;13.332;2022-12-24T08:25:09;16.07;;;6.77;;
19095;SDS011;9680;52.520;13.332;2022-12-24T08:27:42;17.63;;;7.07;;
19095;SDS011;9680;52.520;13.332;2022-12-24T08:30:21;15.50;;;6.60;;
19095;SDS011;9680;52.520;13.332;2022-12-24T08:32:48;16.10;;;7.10;;
19095;SDS011;9680;52.520;13.332;2022-12-24T08:35:17;15.63;;;6.73;;
19095;SDS011;9680;52.520;13.332;2022-12-24T08:37:50;19.30;;;7.27;;
19095;SDS011;9680;52.520;13.332;2022-12-24T08:46:54;16.80;;;6.90;;
19095;SDS011;9680;52.520;13.332;2022-12-24T08:49:21;17.13;;;6.83;;
19095;SDS011;9680;52.520;13.332;2022-12-24T08:51:50;15.70;;;6.67;;
19095;SDS011;9680;52.520;13.332;2022-12-24T08:54:17;19.07;;;6.80;;
19095;SDS011;9680;52.520;13.332;2022-12-24T08:56:44;62.93;;;9.53;;
19095;SDS011;9680;52.520;13.332;2022-12-24T08:59:12;17.57;;;6.77;;
19095;SDS011;9680;52.520;13.332;2022-12-24T09:01:38;19.37;;;7.30;;
19095;SDS011;9680;52.520;13.332;2022-12-24T09:04:05;18.47;;;6.93;;
19095;SDS011;9680;52.520;13.332;2022-12-24T09:06:33;17.97;;;6.83;;
19095;SDS011;9680;52.520;13.332;2022-12-24T09:09:01;17.63;;;7.33;;
19095;SDS011;9680;52.520;13.332;2022-12-24T09:11:28;20.60;;;8.07;;
19095;SDS011;9680;52.520;13.332;2022-12-24T09:13:55;17.80;;;7.20;;
19095;SDS011;9680;52.520;13.332;2022-12-24T09:16:22;17.77;;;7.17;;
19095;SDS011;9680;52.520;13.332;2022-12-24T09:18:49;17.77;;;7.13;;
19095;SDS011;9680;52.520;13.332;2022-12-24T09:21:16;16.00;;;7.00;;
19095;SDS011;9680;52.520;13.332;2022-12-24T09:23:44;16.83;;;7.07;;
19095;SDS011;9680;52.520;13.332;2022-12-24T09:26:15;18.37;;;7.03;;
19095;SDS011;9680;52.520;13.332;2022-12-24T09:28:43;18.43;;;6.87;;
19095;SDS011;9680;52.520;13.332;2022-12-24T09:31:12;18.63;;;7.50;;
19095;SDS011;9680;52.520;13.332;2022-12-24T09:33:39;17.50;;;6.83;;
19095;SDS011;9680;52.520;13.332;2022-12-24T09:36:08;18.43;;;7.30;;
19095;SDS011;9680;52.520;13.332;2022-12-24T09:38:36;19.23;;;7.77;;
19095;SDS011;9680;52.520;13.332;2022-12-24T09:41:09;17.83;;;7.23;;
19095;SDS011;9680;52.520;13.332;2022-12-24T09:43:39;18.63;;;7.47;;
19095;SDS011;9680;52.520;13.332;2022-12-24T09:46:16;18.50;;;8.00;;
19095;SDS011;9680;52.520;13.332;2022-12-24T09:48:48;19.73;;;8.43;;
19095;SDS011;9680;52.520;13.332;2022-12-24T09:51:20;22.13;;;8.57;;
19095;SDS011;9680;52.520;13.332;2022-12-24T09:53:54;19.03;;;7.67;;
19095;SDS011;9680;52.520;13.332;2022-12-24T09:56:27;21.60;;;8.37;;
19095;SDS011;9680;52.520;13.332;2022-12-24T09:59:00;21.10;;;8.30;;
19095;SDS011;9680;52.520;13.332;2022-12-24T10:01:29;19.67;;;8.20;;
19095;SDS011;9680;52.520;13.332;2022-12-24T10:03:59;24.23;;;8.60;;
19095;SDS011;9680;52.520;13.332;2022-12-24T10:06:29;21.53;;;9.13;;
19095;SDS011;9680;52.520;13.332;2022-12-24T10:09:05;21.13;;;8.90;;
19095;SDS011;9680;52.520;13.332;2022-12-24T10:11:41;21.13;;;8.47;;
19095;SDS011;9680;52.520;13.332;2022-12-24T10:14:21;22.33;;;8.63;;
19095;SDS011;9680;52.520;13.332;2022-12-24T10:16:57;21.47;;;8.43;;
19095;SDS011;9680;52.520;13.332;2022-12-24T10:19:38;19.40;;;7.67;;
19095;SDS011;9680;52.520;13.332;2022-12-24T10:22:16;20.83;;;8.60;;
19095;SDS011;9680;52.520;13.332;2022-12-24T10:24:50;19.13;;;7.80;;
19095;SDS011;9680;52.520;13.332;2022-12-24T10:27:24;20.93;;;8.03;;
19095;SDS011;9680;52.520;13.332;2022-12-24T10:30:00;18.93;;;7.30;;
19095;SDS011;9680;52.520;13.332;2022-12-24T10:32:31;20.23;;;8.37;;
19095;SDS011;9680;52.520;13.332;2022-12-24T10:35:00;21.70;;;8.23;;
19095;SDS011;9680;52.520;13.332;2022-12-24T10:37:33;18.83;;;7.50;;
19095;SDS011;9680;52.520;13.332;2022-12-24T10:40:01;17.80;;;7.30;;
19095;SDS011;9680;52.520;13.332;2022-12-24T10:42:31;18.03;;;7.47;;
19095;SDS011;9680;52.520;13.332;2022-12-24T10:45:06;17.63;;;7.17;;
19095;SDS011;9680;52.520;13.332;2022-12-24T10:47:33;18.07;;;7.33;;
19095;SDS011;9680;52.520;13.332;2022-12-24T10:50:03;13.87;;;6.17;;
19095;SDS011;9680;52.520;13.332;2022-12-24T10:52:36;14.47;;;6.63;;
19095;SDS011;9680;52.520;13.332;2022-12-24T10:55:09;15.17;;;6.77;;
19095;SDS011;9680;52.520;13.332;2022-12-24T10:57:37;14.57;;;5.40;;
19095;SDS011;9680;52.520;13.332;2022-12-24T11:00:17;14.47;;;6.53;;
19095;SDS011;9680;52.520;13.332;2022-12-24T11:02:45;13.17;;;6.10;;
19095;SDS011;9680;52.520;13.332;2022-12-24T11:05:26;14.73;;;5.97;;
19095;SDS011;9680;52.520;13.332;2022-12-24T11:08:00;13.67;;;6.00;;
19095;SDS011;9680;52.520;13.332;2022-12-24T11:10:28;15.87;;;6.03;;
19095;SDS011;9680;52.520;13.332;2022-12-24T11:12:56;12.43;;;5.53;;
19095;SDS011;9680;52.520;13.332;2022-12-24T11:15:25;14.07;;;5.97;;
19095;SDS011;9680;52.520;13.332;2022-12-24T11:17:57;13.83;;;6.10;;
19095;SDS011;9680;52.520;13.332;2022-12-24T11:20:28;13.10;;;6.33;;
19095;SDS011;9680;52.520;13.332;2022-12-24T11:22:57;14.00;;;6.30;;
19095;SDS011;9680;52.520;13.332;2022-12-24T11:25:25;17.00;;;6.30;;
19095;SDS011;9680;52.520;13.332;2022-12-24T11:27:56;15.27;;;6.30;;
19095;SDS011;9680;52.520;13.332;2022-12-24T11:30:38;14.37;;;6.33;;
19095;SDS011;9680;52.520;13.332;2022-12-24T11:33:13;13.10;;;5.57;;
19095;SDS011;9680;52.520;13.332;2022-12-24T11:35:45;14.87;;;5.50;;
19095;SDS011;9680;52.520;13.332;2022-12-24T11:38:16;11.63;;;5.53;;
19095;SDS011;9680;52.520;13.332;2022-12-24T11:40:47;13.03;;;5.27;;
19095;SDS011;9680;52.520;13.332;2022-12-24T11:43:16;10.23;;;4.87;;
19095;SDS011;9680;52.520;13.332;2022-12-24T11:45:49;12.27;;;5.17;;
19095;SDS011;9680;52.520;13.332;2022-12-24T11:48:27;11.10;;;5.00;;
19095;SDS011;9680;52.520;13.332;2022-12-24T11:50:56;11.47;;;5.07;;
19095;SDS011;9680;52.520;13.332;2022-12-24T11:53:24;10.77;;;4.87;;
19095;SDS011;9680;52.520;13.332;2022-12-24T11:55:56;10.90;;;5.10;;
19095;SDS011;9680;52.520;13.332;2022-12-24T11:58:26;9.10;;;4.50;;
19095;SDS011;9680;52.520;13.332;2022-12-24T12:01:02;11.03;;;4.83;;
19095;SDS011;9680;52.520;13.332;2022-12-24T12:03:37;10.20;;;4.63;;
19095;SDS011;9680;52.520;13.332;2022-12-24T12:06:11;10.83;;;4.40;;
19095;SDS011;9680;52.520;13.332;2022-12-24T12:08:49;10.80;;;4.47;;
19095;SDS011;9680;52.520;13.332;2022-12-24T12:11:18;9.80;;;4.80;;
19095;SDS011;9680;52.520;13.332;2022-12-24T12:13:48;9.67;;;4.50;;
19095;SDS011;9680;52.520;13.332;2022-12-24T12:16:18;11.30;;;4.77;;
19095;SDS011;9680;52.520;13.332;2022-12-24T12:18:50;9.23;;;4.20;;
19095;SDS011;9680;52.520;13.332;2022-12-24T12:21:22;10.20;;;4.70;;
19095;SDS011;9680;52.520;13.332;2022-12-24T12:23:53;11.00;;;4.53;;
19095;SDS011;9680;52.520;13.332;2022-12-24T12:26:24;9.40;;;4.07;;
19095;SDS011;9680;52.520;13.332;2022-12-24T12:28:54;9.07;;;3.97;;
19095;SDS011;9680;52.520;13.332;2022-12-24T12:31:26;9.53;;;4.27;;
19095;SDS011;9680;52.520;13.332;2022-12-24T12:33:59;10.70;;;4.40;;
19095;SDS011;9680;52.520;13.332;2022-12-24T12:36:39;11.87;;;4.10;;
19095;SDS011;9680;52.520;13.332;2022-12-24T12:39:11;10.70;;;4.57;;
19095;SDS011;9680;52.520;13.332;2022-12-24T12:41:42;9.17;;;3.77;;
19095;SDS011;9680;52.520;13.332;2022-12-24T12:50:06;8.87;;;4.00;;
19095;SDS011;9680;52.520;13.332;2022-12-24T12:55:41;8.33;;;3.90;;
19095;SDS011;9680;52.520;13.332;2022-12-24T12:58:17;8.70;;;3.67;;
19095;SDS011;9680;52.520;13.332;2022-12-24T13:00:49;11.00;;;3.90;;
19095;SDS011;9680;52.520;13.332;2022-12-24T13:03:30;12.63;;;4.20;;
19095;SDS011;9680;52.520;13.332;2022-12-24T13:09:04;12.93;;;4.40;;
19095;SDS011;9680;52.520;13.332;2022-12-24T13:11:48;9.83;;;4.00;;
19095;SDS011;9680;52.520;13.332;2022-12-24T13:14:30;9.03;;;3.77;;
19095;SDS011;9680;52.520;13.332;2022-12-24T13:20:20;11.03;;;4.27;;
19095;SDS011;9680;52.520;13.332;2022-12-24T13:22:53;11.40;;;4.10;;
19095;SDS011;9680;52.520;13.332;2022-12-24T13:25:25;9.97;;;3.90;;
19095;SDS011;9680;52.520;13.332;2022-12-24T13:27:55;17.10;;;4.13;;
19095;SDS011;9680;52.520;13.332;2022-12-24T13:30:33;15.87;;;4.33;;
19095;SDS011;9680;52.520;13.332;2022-12-24T13:33:02;9.40;;;3.77;;
19095;SDS011;9680;52.520;13.332;2022-12-24T13:35:32;15.90;;;4.00;;
19095;SDS011;9680;52.520;13.332;2022-12-24T13:44:18;12.70;;;4.03;;
19095;SDS011;9680;52.520;13.332;2022-12-24T13:47:01;13.67;;;3.40;;
19095;SDS011;9680;52.520;13.332;2022-12-24T13:49:46;14.60;;;3.30;;
19095;SDS011;9680;52.520;13.332;2022-12-24T13:52:22;12.37;;;3.60;;
19095;SDS011;9680;52.520;13.332;2022-12-24T13:55:04;16.23;;;3.57;;
19095;SDS011;9680;52.520;13.332;2022-12-24T13:57:38;12.87;;;3.67;;
19095;SDS011;9680;52.520;13.332;2022-12-24T14:00:22;12.73;;;3.47;;
19095;SDS011;9680;52.520;13.332;2022-12-24T14:02:56;19.67;;;4.17;;
19095;SDS011;9680;52.520;13.332;2022-12-24T14:05:27;17.70;;;4.00;;
19095;SDS011;9680;52.520;13.332;2022-12-24T14:07:59;19.83;;;4.60;;
19095;SDS011;9680;52.520;13.332;2022-12-24T14:10:30;22.13;;;4.40;;
19095;SDS011;9680;52.520;13.332;2022-12-24T14:13:02;16.83;;;4.10;;
19095;SDS011;9680;52.520;13.332;2022-12-24T14:18:29;22.67;;;4.37;;
19095;SDS011;9680;52.520;13.332;2022-12-24T14:20:59;14.37;;;3.73;;
19095;SDS011;9680;52.520;13.332;2022-12-24T14:23:32;12.83;;;3.93;;
19095;SDS011;9680;52.520;13.332;2022-12-24T14:26:09;18.77;;;4.70;;
19095;SDS011;9680;52.520;13.332;2022-12-24T14:28:42;14.00;;;3.77;;
19095;SDS011;9680;52.520;13.332;2022-12-24T14:31:13;15.43;;;4.37;;
19095;SDS011;9680;52.520;13.332;2022-12-24T14:33:42;17.87;;;4.23;;
19095;SDS011;9680;52.520;13.332;2022-12-24T14:36:08;17.87;;;3.80;;
19095;SDS011;9680;52.520;13.332;2022-12-24T14:38:40;20.97;;;5.03;;
19095;SDS011;9680;52.520;13.332;2022-12-24T14:41:11;10.53;;;4.23;;
19095;SDS011;9680;52.520;13.332;2022-12-24T14:43:49;20.40;;;3.80;;
19095;SDS011;9680;52.520;13.332;2022-12-24T14:46:23;18.80;;;4.10;;
19095;SDS011;9680;52.520;13.332;2022-12-24T14:48:57;18.83;;;4.23;;
19095;SDS011;9680;52.520;13.332;2022-12-24T14:51:33;28.87;;;7.63;;
19095;SDS011;9680;52.520;13.332;2022-12-24T14:54:15;13.73;;;3.97;;
19095;SDS011;9680;52.520;13.332;2022-12-24T14:59:49;16.53;;;3.93;;
19095;SDS011;9680;52.520;13.332;2022-12-24T15:02:27;17.00;;;4.23;;
19095;SDS011;9680;52.520;13.332;2022-12-24T15:05:03;22.03;;;4.30;;
19095;SDS011;9680;52.520;13.332;2022-12-24T15:07:31;17.70;;;3.77;;
19095;SDS011;9680;52.520;13.332;2022-12-24T15:10:02;12.17;;;3.93;;
19095;SDS011;9680;52.520;13.332;2022-12-24T15:12:33;21.70;;;4.10;;
19095;SDS011;9680;52.520;13.332;2022-12-24T15:15:00;24.60;;;3.97;;
19095;SDS011;9680;52.520;13.332;2022-12-24T15:17:32;23.77;;;4.17;;
19095;SDS011;9680;52.520;13.332;2022-12-24T15:20:00;22.17;;;4.10;;
19095;SDS011;9680;52.520;13.332;2022-12-24T15:25:44;15.37;;;4.20;;
19095;SDS011;9680;52.520;13.332;2022-12-24T15:28:15;17.77;;;4.40;;
19095;SDS011;9680;52.520;13.332;2022-12-24T15:30:48;19.50;;;4.13;;
19095;SDS011;9680;52.520;13.332;2022-12-24T15:33:33;19.90;;;3.83;;
19095;SDS011;9680;52.520;13.332;2022-12-24T15:36:01;28.13;;;4.60;;
19095;SDS011;9680;52.520;13.332;2022-12-24T15:38:30;25.60;;;4.60;;